Time;durP1;ratioP1;P1;durP2;ratioP2;P2;SDS_P1;SDS_P2;PMS_P1;PMS_P2;Temp;Humidity;BMP_temperature;BMP_pressure;BME280_temperature;BME280_humidity;BME280_pressure;Samples;Min_cycle;Max_cycle;Signal;HPM_P1;HPM_P2
2023/09/13 00:02:20;;;;;;;8.95;5.93;;;;;;;22.88;63.13;101216.03;5052481;28;20060;-67
2023/09/13 00:04:48;;;;;;;6.80;5.28;;;;;;;22.90;62.96;101213.81;5048833;28;20089;-67
2023/09/13 00:07:18;;;;;;;9.50;7.30;;;;;;;22.89;63.29;101214.91;5054737;27;20049;-67
2023/09/13 00:09:46;;;;;;;8.63;5.82;;;;;;;22.88;63.40;101212.47;5054902;27;20128;-67
2023/09/13 00:12:14;;;;;;;9.50;6.85;;;;;;;22.85;63.49;101216.63;5050493;27;20075;-67
2023/09/13 00:14:43;;;;;;;12.68;7.18;;;;;;;22.84;63.62;101209.50;5051962;28;20082;-66
2023/09/13 00:17:11;;;;;;;9.45;6.28;;;;;;;22.84;63.52;101214.16;5056068;27;20053;-66
2023/09/13 00:19:39;;;;;;;9.85;6.25;;;;;;;22.82;63.29;101213.66;5053700;28;20049;-66
2023/09/13 00:22:06;;;;;;;11.35;7.40;;;;;;;22.81;63.28;101207.34;5057607;28;20072;-66
2023/09/13 00:24:34;;;;;;;10.27;7.32;;;;;;;22.80;63.18;101219.44;5055277;27;20063;-67
2023/09/13 00:27:02;;;;;;;9.30;7.05;;;;;;;22.79;63.60;101214.22;5054476;28;20080;-67
2023/09/13 00:29:33;;;;;;;11.65;7.95;;;;;;;22.77;63.17;101216.44;5052610;27;20053;-66
2023/09/13 00:32:03;;;;;;;11.70;7.75;;;;;;;22.75;63.24;101216.72;5050863;27;20077;-67
2023/09/13 00:34:31;;;;;;;11.48;7.95;;;;;;;22.70;63.24;101211.31;5054056;28;20053;-67
2023/09/13 00:36:59;;;;;;;14.90;7.65;;;;;;;22.68;63.41;101203.38;5051695;27;20045;-66
2023/09/13 00:39:27;;;;;;;11.25;7.80;;;;;;;22.70;63.69;101212.13;5053123;28;20048;-66
2023/09/13 00:41:56;;;;;;;10.82;8.30;;;;;;;22.68;63.41;101219.81;5051357;27;20042;-66
2023/09/13 00:44:24;;;;;;;9.63;7.70;;;;;;;22.67;63.36;101220.13;5052349;28;20053;-66
2023/09/13 00:46:52;;;;;;;12.18;8.35;;;;;;;22.67;63.53;101217.38;5053850;27;20053;-67
2023/09/13 00:49:22;;;;;;;12.57;8.77;;;;;;;22.54;63.45;101198.91;5052617;28;20049;-67
2023/09/13 00:51:51;;;;;;;11.68;7.85;;;;;;;22.61;63.32;101222.09;5057285;27;20044;-66
2023/09/13 00:54:19;;;;;;;12.15;8.88;;;;;;;22.62;63.30;101220.19;5052001;28;20174;-66
2023/09/13 00:56:47;;;;;;;13.80;8.43;;;;;;;22.59;63.30;101212.56;5053949;27;20105;-66
2023/09/13 00:59:15;;;;;;;11.75;7.90;;;;;;;22.58;63.33;101217.22;5053350;27;20057;-66
2023/09/13 01:01:42;;;;;;;11.68;8.55;;;;;;;22.45;63.54;101195.22;5054480;27;20049;-67
2023/09/13 01:04:10;;;;;;;11.40;8.32;;;;;;;22.56;63.53;101213.13;5058310;27;20055;-67
2023/09/13 01:06:41;;;;;;;15.27;9.52;;;;;;;22.55;63.46;101223.28;5055256;28;20057;-66
2023/09/13 01:09:09;;;;;;;14.07;10.65;;;;;;;22.54;63.54;101216.16;5065115;27;20400;-66
2023/09/13 01:11:37;;;;;;;11.48;9.38;;;;;;;22.54;63.29;101218.91;5052435;27;20109;-66
2023/09/13 01:14:04;;;;;;;12.77;10.52;;;;;;;22.52;63.30;101215.69;5056524;27;20060;-66
2023/09/13 01:16:40;;;;;;;12.43;10.02;;;;;;;22.52;63.36;101217.59;5063844;27;20121;-67
2023/09/13 01:19:26;;;;;;;15.18;11.32;;;;;;;22.46;63.67;101211.38;5055680;28;20136;-67
2023/09/13 01:22:17;;;;;;;16.88;10.85;;;;;;;22.49;63.48;101208.03;5058139;27;20057;-67
2023/09/13 01:25:04;;;;;;;17.80;12.98;;;;;;;22.47;64.05;101214.91;5054937;28;20055;-67
2023/09/13 01:27:47;;;;;;;16.75;11.80;;;;;;;22.47;63.70;101218.47;5058239;28;20080;-67
2023/09/13 01:30:17;;;;;;;19.65;13.20;;;;;;;22.45;63.95;101217.94;5056899;28;20049;-67
2023/09/13 01:32:47;;;;;;;16.65;12.15;;;;;;;22.43;63.56;101220.16;5054917;27;20053;-67
2023/09/13 01:35:15;;;;;;;18.10;12.73;;;;;;;22.43;63.72;101220.16;5052174;28;20106;-67
2023/09/13 01:37:43;;;;;;;22.73;15.43;;;;;;;22.40;63.90;101227.03;5054720;28;20053;-67
2023/09/13 01:40:11;;;;;;;20.23;12.48;;;;;;;22.40;63.80;101221.56;5051197;28;20101;-67
2023/09/13 01:42:40;;;;;;;17.38;11.88;;;;;;;22.24;64.04;101198.19;5055062;27;20056;-67
2023/09/13 01:45:12;;;;;;;21.23;14.27;;;;;;;22.38;64.00;101225.72;5054379;28;20045;-67
2023/09/13 01:47:45;;;;;;;19.73;13.70;;;;;;;22.37;63.74;101238.59;5059054;28;20053;-67
2023/09/13 01:50:15;;;;;;;22.65;15.88;;;;;;;22.36;64.30;101238.88;5056066;28;20049;-68
2023/09/13 01:52:43;;;;;;;21.45;16.13;;;;;;;22.33;64.28;101239.47;5055863;27;20078;-67
2023/09/13 01:55:10;;;;;;;25.90;16.15;;;;;;;22.33;64.30;101248.50;5059670;28;20070;-67
2023/09/13 01:57:39;;;;;;;21.52;14.40;;;;;;;22.30;63.88;101245.50;5057211;28;20042;-67
2023/09/13 02:00:08;;;;;;;20.40;15.48;;;;;;;22.30;64.29;101237.31;5059649;27;20041;-67
2023/09/13 02:02:36;;;;;;;21.50;15.73;;;;;;;22.30;64.07;101242.78;5056733;28;20053;-67
2023/09/13 02:05:06;;;;;;;20.73;15.75;;;;;;;22.28;64.13;101239.50;5053153;28;20266;-67
2023/09/13 02:07:34;;;;;;;19.05;14.88;;;;;;;22.22;64.30;101236.00;5058048;27;20116;-67
2023/09/13 02:10:02;;;;;;;23.95;17.23;;;;;;;22.25;64.08;101245.56;5051419;28;20053;-67
2023/09/13 02:12:30;;;;;;;23.90;18.73;;;;;;;22.25;64.03;101240.91;5056774;27;20066;-68
2023/09/13 02:14:58;;;;;;;20.35;14.57;;;;;;;22.24;64.15;101242.00;5056941;28;20071;-67
2023/09/13 02:17:26;;;;;;;25.10;19.50;;;;;;;22.23;64.18;101245.03;5057339;27;20056;-67
2023/09/13 02:19:54;;;;;;;29.08;19.02;;;;;;;22.22;64.34;101255.19;5054067;27;20048;-67
2023/09/13 02:22:23;;;;;;;26.45;19.15;;;;;;;22.21;64.60;101255.47;5056351;28;20049;-67
2023/09/13 02:24:51;;;;;;;26.40;19.17;;;;;;;22.19;64.73;101255.75;5055583;28;20045;-67
2023/09/13 02:27:18;;;;;;;26.63;18.75;;;;;;;22.19;64.62;101263.16;5057216;27;20045;-67
2023/09/13 02:29:46;;;;;;;25.83;20.40;;;;;;;22.17;64.74;101259.88;5051553;28;20093;-67
2023/09/13 02:32:14;;;;;;;26.35;19.42;;;;;;;22.16;64.63;101252.78;5050116;27;20086;-67
2023/09/13 02:34:44;;;;;;;31.55;20.58;;;;;;;22.15;65.05;101262.91;5057359;27;20113;-67
2023/09/13 02:37:12;;;;;;;28.42;19.52;;;;;;;22.14;64.98;101264.03;5058284;28;20131;-67
2023/09/13 02:39:43;;;;;;;28.52;19.60;;;;;;;22.12;65.01;101260.75;5058757;28;20045;-67
2023/09/13 02:42:11;;;;;;;29.40;20.73;;;;;;;22.12;64.94;101257.19;5052314;28;20045;-67
2023/09/13 02:44:39;;;;;;;28.67;19.60;;;;;;;22.10;64.73;101256.69;5055465;27;20089;-66
2023/09/13 02:47:07;;;;;;;27.10;18.45;;;;;;;22.08;64.84;101263.25;5055480;28;20045;-67
2023/09/13 02:49:35;;;;;;;25.52;18.08;;;;;;;22.09;64.63;101266.81;5053188;27;20121;-67
2023/09/13 02:52:02;;;;;;;31.67;19.38;;;;;;;22.06;64.62;101256.44;5055588;28;20052;-67
2023/09/13 02:54:30;;;;;;;24.85;17.40;;;;;;;22.07;64.46;101255.34;5058071;27;20053;-67
2023/09/13 02:57:00;;;;;;;24.33;16.23;;;;;;;22.07;64.58;101260.81;5057946;27;20045;-67
2023/09/13 02:59:28;;;;;;;22.65;16.17;;;;;;;22.05;64.67;101261.09;5054384;28;20050;-67
2023/09/13 03:01:55;;;;;;;23.52;17.58;;;;;;;22.05;64.41;101266.56;5054169;27;20482;-67
2023/09/13 03:04:23;;;;;;;26.58;18.23;;;;;;;22.03;64.82;101263.31;5055270;27;20153;-67
2023/09/13 03:06:51;;;;;;;24.83;16.80;;;;;;;22.03;64.70;101263.31;5058340;27;20075;-67
2023/09/13 03:09:19;;;;;;;24.77;16.63;;;;;;;22.01;64.25;101268.22;5055000;28;20429;-67
2023/09/13 03:11:47;;;;;;;25.45;15.65;;;;;;;22.00;64.30;101269.31;5060552;28;20037;-67
2023/09/13 03:14:16;;;;;;;29.40;17.92;;;;;;;22.01;64.45;101267.41;5055268;28;20059;-67
2023/09/13 03:16:44;;;;;;;21.88;15.50;;;;;;;21.98;64.50;101266.06;5054833;27;20068;-67
2023/09/13 03:19:12;;;;;;;23.80;16.00;;;;;;;21.97;64.32;101267.16;5057891;28;20049;-67
2023/09/13 03:21:40;;;;;;;25.23;17.83;;;;;;;21.97;64.38;101266.34;5065601;27;20084;-67
2023/09/13 03:24:08;;;;;;;25.70;17.20;;;;;;;21.97;64.41;101269.09;5058757;28;20440;-67
2023/09/13 03:26:39;;;;;;;20.88;15.07;;;;;;;21.95;64.43;101269.38;5056834;28;20041;-67
2023/09/13 03:29:07;;;;;;;19.48;14.60;;;;;;;21.95;64.27;101271.28;5056961;28;20060;-67
2023/09/13 03:31:38;;;;;;;23.27;16.23;;;;;;;21.93;64.24;101282.53;5054379;27;20443;-67
2023/09/13 03:34:06;;;;;;;26.02;15.43;;;;;;;21.93;64.19;101277.06;5058356;27;20108;-68
2023/09/13 03:36:34;;;;;;;18.80;14.38;;;;;;;21.93;64.20;101277.06;5061414;27;20045;-67
2023/09/13 03:39:03;;;;;;;22.25;14.35;;;;;;;21.93;64.28;101285.25;5055491;27;20044;-67
2023/09/13 03:41:32;;;;;;;22.63;15.38;;;;;;;21.91;64.31;101273.78;5061493;27;20459;-68
2023/09/13 03:43:59;;;;;;;20.23;14.68;;;;;;;21.90;64.25;101282.28;5060506;28;20051;-68
2023/09/13 03:46:27;;;;;;;19.40;15.38;;;;;;;21.90;64.22;101287.75;5059373;27;20490;-67
2023/09/13 03:48:57;;;;;;;20.75;15.13;;;;;;;21.87;64.27;101280.94;5067256;27;20478;-68
2023/09/13 03:51:25;;;;;;;24.52;16.23;;;;;;;21.87;64.64;101288.31;5069104;28;20076;-68
2023/09/13 03:53:53;;;;;;;23.45;14.93;;;;;;;21.86;64.43;101289.44;5059662;27;20045;-68
2023/09/13 03:56:20;;;;;;;27.40;16.95;;;;;;;21.86;64.42;101286.69;5067624;27;20049;-68
2023/09/13 03:58:48;;;;;;;25.88;18.02;;;;;;;21.85;64.68;101280.41;5063604;28;20055;-67
2023/09/13 04:01:16;;;;;;;27.05;16.52;;;;;;;21.84;64.66;101294.38;5050805;28;20037;-67
2023/09/13 04:03:44;;;;;;;25.50;17.85;;;;;;;21.83;64.87;101292.75;5059551;28;20072;-67
2023/09/13 04:06:14;;;;;;;25.27;17.58;;;;;;;21.81;64.62;101293.03;5062972;27;20057;-67
2023/09/13 04:08:42;;;;;;;22.15;16.15;;;;;;;21.80;64.74;101293.31;5055629;28;20403;-72
2023/09/13 04:11:10;;;;;;;31.70;19.98;;;;;;;21.80;64.70;101290.56;5062647;28;20375;-66
2023/09/13 04:13:38;;;;;;;25.20;17.10;;;;;;;21.78;64.89;101285.38;5063845;27;20044;-69
2023/09/13 04:16:07;;;;;;;24.67;18.08;;;;;;;21.76;64.89;101280.19;5057824;28;20172;-67
2023/09/13 04:18:35;;;;;;;23.92;17.98;;;;;;;21.75;64.77;101291.44;5057239;27;20497;-67
2023/09/13 04:21:03;;;;;;;25.20;17.55;;;;;;;21.70;64.85;101280.53;5064122;27;20056;-67
2023/09/13 04:23:32;;;;;;;32.20;19.83;;;;;;;21.74;65.15;101292.53;5051299;28;20053;-68
2023/09/13 04:26:00;;;;;;;32.45;20.25;;;;;;;21.72;65.06;101287.34;5054496;28;20409;-66
2023/09/13 04:28:28;;;;;;;25.58;17.67;;;;;;;21.72;65.00;101289.28;5052490;28;20543;-67
2023/09/13 04:30:58;;;;;;;28.98;19.45;;;;;;;21.71;65.37;101295.84;5051739;27;20140;-67
2023/09/13 04:33:51;;;;;;;26.35;18.80;;;;;;;21.69;65.12;101292.56;5059549;28;20060;-67
2023/09/13 04:36:19;;;;;;;27.92;18.33;;;;;;;21.69;65.24;101287.09;5060916;27;20245;-66
2023/09/13 04:38:49;;;;;;;25.95;18.05;;;;;;;21.67;65.04;101292.03;5060787;28;20049;-67
2023/09/13 04:41:17;;;;;;;26.20;20.05;;;;;;;21.56;65.00;101282.28;5056467;27;20070;-67
2023/09/13 04:43:45;;;;;;;27.70;19.70;;;;;;;21.66;64.98;101295.88;5062311;27;20053;-67
2023/09/13 04:46:14;;;;;;;28.38;18.55;;;;;;;21.63;65.26;101286.31;5055025;27;20125;-68
2023/09/13 04:48:42;;;;;;;24.52;18.08;;;;;;;21.64;64.99;101292.63;5054862;27;20433;-68
2023/09/13 04:51:11;;;;;;;25.80;17.10;;;;;;;21.62;64.97;101294.81;5052788;28;20041;-68
2023/09/13 04:53:39;;;;;;;27.27;18.17;;;;;;;21.61;65.19;101293.19;5049914;28;20049;-66
2023/09/13 04:56:09;;;;;;;23.98;16.98;;;;;;;21.61;65.12;101299.47;5052917;27;20151;-67
2023/09/13 04:58:36;;;;;;;21.92;16.45;;;;;;;21.59;65.15;101298.94;5056447;28;20109;-65
2023/09/13 05:01:06;;;;;;;22.33;17.17;;;;;;;21.61;65.15;101309.59;5056441;27;20097;-67
2023/09/13 05:03:34;;;;;;;21.10;16.30;;;;;;;21.60;65.01;101303.31;5049902;27;20045;-66
2023/09/13 05:06:02;;;;;;;27.15;18.20;;;;;;;21.59;65.16;101309.88;5056259;27;20112;-67
2023/09/13 05:08:33;;;;;;;25.00;17.48;;;;;;;21.59;64.87;101309.88;5056594;27;20049;-68
2023/09/13 05:11:02;;;;;;;25.30;17.55;;;;;;;21.55;65.13;101303.34;5054920;28;20060;-67
2023/09/13 05:13:32;;;;;;;28.33;17.65;;;;;;;21.57;64.85;101308.53;5054399;28;20066;-66
2023/09/13 05:16:00;;;;;;;23.17;17.52;;;;;;;21.57;65.11;101314.00;5056923;27;20098;-70
2023/09/13 05:18:28;;;;;;;23.98;17.25;;;;;;;21.55;64.92;101306.06;5055802;27;20071;-66
2023/09/13 05:20:56;;;;;;;28.98;17.80;;;;;;;21.55;65.07;101311.56;5050009;28;20048;-65
2023/09/13 05:23:24;;;;;;;24.33;18.15;;;;;;;21.56;64.99;101312.38;5054187;27;20146;-66
2023/09/13 05:25:55;;;;;;;21.85;15.65;;;;;;;21.55;64.86;101319.75;5053272;27;20156;-66
2023/09/13 05:28:24;;;;;;;29.27;17.92;;;;;;;21.53;64.79;101321.13;5051404;28;20109;-67
2023/09/13 05:30:55;;;;;;;26.52;16.48;;;;;;;21.53;65.08;101330.16;5051891;28;20060;-67
2023/09/13 05:33:23;;;;;;;28.45;17.75;;;;;;;21.52;64.84;101320.31;5071098;27;20045;-67
2023/09/13 05:35:52;;;;;;;25.55;17.38;;;;;;;21.52;64.97;101316.75;5053417;28;20066;-67
2023/09/13 05:38:19;;;;;;;24.52;16.60;;;;;;;21.51;65.05;101313.22;5052679;27;20045;-67
2023/09/13 05:40:47;;;;;;;27.83;17.20;;;;;;;21.51;64.81;101315.94;5049017;28;20060;-66
2023/09/13 05:43:15;;;;;;;26.63;17.85;;;;;;;21.50;64.96;101314.31;4704108;27;9999881;-66
2023/09/13 05:45:43;;;;;;;27.83;17.65;;;;;;;21.49;64.96;101323.63;5043684;28;20068;-66
2023/09/13 05:48:12;;;;;;;28.88;17.70;;;;;;;21.49;64.72;101331.81;5056800;28;20060;-66
2023/09/13 05:50:40;;;;;;;26.98;19.40;;;;;;;21.49;64.99;101329.09;5052356;27;20463;-66
2023/09/13 05:53:08;;;;;;;23.80;17.52;;;;;;;21.48;64.80;101341.13;5054417;28;20045;-66
2023/09/13 05:55:37;;;;;;;25.73;15.93;;;;;;;21.44;65.09;101343.63;5053341;28;20070;-67
2023/09/13 05:58:05;;;;;;;24.45;19.23;;;;;;;21.43;65.12;101338.44;5057376;27;20483;-67
2023/09/13 06:00:33;;;;;;;29.40;21.05;;;;;;;21.41;65.21;101346.91;5051769;28;20056;-68
2023/09/13 06:03:00;;;;;;;32.90;20.50;;;;;;;21.41;65.12;101348.81;5056362;28;20053;-67
2023/09/13 06:05:31;;;;;;;30.70;20.20;;;;;;;21.38;64.98;101347.47;5052184;27;20056;-67
2023/09/13 06:07:59;;;;;;;32.85;21.17;;;;;;;21.41;65.00;101357.03;5054764;28;20105;-69
2023/09/13 06:10:26;;;;;;;30.98;19.90;;;;;;;21.40;64.80;101358.13;5053812;27;20102;-63
2023/09/13 06:12:55;;;;;;;38.47;22.67;;;;;;;21.33;65.65;101361.16;5058269;28;20053;-65
2023/09/13 06:15:23;;;;;;;39.47;22.58;;;;;;;21.37;65.46;101373.19;5060443;28;20047;-65
2023/09/13 06:17:51;;;;;;;39.45;22.38;;;;;;;21.36;65.48;101374.28;5057507;28;20041;-65
2023/09/13 06:20:19;;;;;;;30.50;21.58;;;;;;;21.36;65.58;101368.00;5061027;28;20100;-64
2023/09/13 06:22:48;;;;;;;30.48;20.48;;;;;;;21.35;65.60;101383.59;5061261;28;20064;-65
2023/09/13 06:25:17;;;;;;;29.52;19.83;;;;;;;21.34;65.54;101381.94;5063183;27;20053;-65
2023/09/13 06:27:45;;;;;;;33.03;20.98;;;;;;;21.33;65.26;101377.59;5059616;28;20080;-65
2023/09/13 06:30:13;;;;;;;30.90;20.48;;;;;;;21.31;65.21;101382.50;5057604;27;20079;-63
2023/09/13 06:32:41;;;;;;;31.08;20.48;;;;;;;21.31;65.91;101398.09;5055047;28;20505;-65
2023/09/13 06:35:11;;;;;;;37.40;20.23;;;;;;;21.29;65.68;101392.91;5052623;27;21564;-65
2023/09/13 06:37:43;;;;;;;33.25;20.77;;;;;;;21.29;65.91;101386.63;5055423;28;20079;-66
2023/09/13 06:40:15;;;;;;;31.23;20.52;;;;;;;21.28;65.72;101393.19;5058697;27;20075;-65
2023/09/13 06:42:43;;;;;;;29.58;19.98;;;;;;;21.28;65.63;101393.19;5052961;27;20045;-65
2023/09/13 06:45:27;;;;;;;32.70;19.65;;;;;;;21.27;65.56;101392.38;5055269;27;20053;-65
2023/09/13 06:47:58;;;;;;;27.35;18.48;;;;;;;21.27;65.56;101402.50;5058096;28;20045;-65
2023/09/13 06:50:26;;;;;;;24.73;18.40;;;;;;;21.27;65.69;101389.63;5058361;27;20045;-65
2023/09/13 06:53:14;;;;;;;24.92;17.98;;;;;;;21.25;65.63;101386.38;5051872;27;20205;-64
2023/09/13 06:56:03;;;;;;;25.83;18.20;;;;;;;21.26;65.57;101395.38;5058997;28;20148;-64
2023/09/13 06:58:36;;;;;;;35.65;24.15;;;;;;;21.22;66.50;101397.84;5056741;28;20053;-64
2023/09/13 07:01:06;;;;;;;35.45;23.67;;;;;;;21.18;67.14;101406.88;5056024;28;20041;-64
2023/09/13 07:03:37;;;;;;;44.03;28.25;;;;;;;21.08;67.79;101410.44;5054795;27;20057;-65
2023/09/13 07:06:12;;;;;;;38.95;25.23;;;;;;;21.06;68.13;101413.47;5057495;28;20044;-65
2023/09/13 07:08:40;;;;;;;41.95;28.05;;;;;;;21.03;68.42;101415.94;5056005;27;20081;-65
2023/09/13 07:11:10;;;;;;;37.67;24.65;;;;;;;21.04;68.20;101423.03;5056551;28;20403;-66
2023/09/13 07:13:38;;;;;;;34.90;23.67;;;;;;;21.05;67.73;101430.13;5057013;27;20045;-66
2023/09/13 07:16:06;;;;;;;32.08;23.23;;;;;;;20.99;67.39;101418.41;5062428;27;20042;-66
2023/09/13 07:18:34;;;;;;;35.72;23.10;;;;;;;21.11;67.16;101431.75;5058098;27;20505;-66
2023/09/13 07:21:02;;;;;;;36.33;23.00;;;;;;;21.12;67.17;101430.66;5051293;27;20491;-65
2023/09/13 07:23:30;;;;;;;30.35;21.38;;;;;;;21.14;67.04;101433.94;5054314;27;20049;-66
2023/09/13 07:25:59;;;;;;;31.33;20.85;;;;;;;21.15;66.91;101426.56;5060939;27;20073;-66
2023/09/13 07:28:28;;;;;;;26.65;19.33;;;;;;;21.16;66.91;101431.75;5052551;27;20049;-66
2023/09/13 07:30:56;;;;;;;25.88;18.92;;;;;;;21.17;66.72;101435.31;5052274;27;20100;-66
2023/09/13 07:33:24;;;;;;;31.33;19.00;;;;;;;21.17;66.62;101432.56;5055249;27;20553;-65
2023/09/13 07:35:52;;;;;;;26.17;18.02;;;;;;;21.19;66.47;101444.03;5055866;27;20129;-66
2023/09/13 07:38:19;;;;;;;24.92;18.00;;;;;;;21.19;66.52;101438.56;5054295;27;20140;-66
2023/09/13 07:40:47;;;;;;;30.17;16.98;;;;;;;21.18;66.46;101445.13;5055240;27;20052;-66
2023/09/13 07:43:16;;;;;;;24.95;17.00;;;;;;;21.19;66.34;101438.56;5055358;27;20045;-66
2023/09/13 07:45:46;;;;;;;30.58;17.63;;;;;;;21.19;66.34;101452.25;5053341;27;20056;-66
2023/09/13 07:48:14;;;;;;;23.23;16.77;;;;;;;21.20;66.36;101445.69;5054250;27;20110;-66
2023/09/13 07:50:41;;;;;;;27.02;16.83;;;;;;;21.19;66.36;101447.59;5057127;27;20045;-66
2023/09/13 07:53:11;;;;;;;26.70;17.75;;;;;;;21.20;66.32;101453.88;5052702;27;20045;-66
2023/09/13 07:55:39;;;;;;;20.55;14.48;;;;;;;21.20;66.08;101453.88;5057341;27;20527;-66
2023/09/13 07:58:07;;;;;;;23.17;16.48;;;;;;;21.19;66.24;101450.31;5051344;27;20947;-66
2023/09/13 08:00:36;;;;;;;24.25;17.33;;;;;;;21.04;66.32;101433.97;5052152;27;20102;-66
2023/09/13 08:03:06;;;;;;;23.45;16.35;;;;;;;21.18;66.22;101456.06;5056274;27;20351;-66
2023/09/13 08:05:34;;;;;;;23.42;16.30;;;;;;;21.18;66.25;101456.91;5050079;27;20063;-66
2023/09/13 08:08:03;;;;;;;25.65;17.17;;;;;;;21.18;66.40;101464.28;5048359;28;20137;-66
2023/09/13 08:10:31;;;;;;;25.35;15.98;;;;;;;21.17;66.30;101462.63;5059249;27;20049;-66
2023/09/13 08:12:59;;;;;;;26.52;16.30;;;;;;;21.16;66.19;101467.28;5053954;27;20453;-66
2023/09/13 08:15:27;;;;;;;25.30;14.85;;;;;;;21.17;66.46;101468.91;5056887;27;20109;-67
2023/09/13 08:18:15;;;;;;;24.33;16.35;;;;;;;21.17;66.72;101487.25;5051437;27;20041;-67
2023/09/13 08:20:43;;;;;;;21.70;15.15;;;;;;;21.13;66.56;101496.00;5055015;27;20076;-67
2023/09/13 08:23:10;;;;;;;23.17;13.88;;;;;;;21.11;66.82;101508.31;5051693;27;20058;-66
2023/09/13 08:25:39;;;;;;;16.67;11.20;;;;;;;21.05;66.87;101498.47;5053187;27;20053;-66
2023/09/13 08:28:07;;;;;;;16.65;10.90;;;;;;;21.06;66.86;101508.31;5051562;27;20382;-66
2023/09/13 08:30:35;;;;;;;13.20;9.70;;;;;;;21.05;66.56;101523.88;5048052;27;20064;-66
2023/09/13 08:33:04;;;;;;;15.32;9.95;;;;;;;21.05;66.55;101526.63;5055048;27;20044;-66
2023/09/13 08:35:34;;;;;;;14.88;7.55;;;;;;;21.02;66.36;101527.16;5050442;27;20093;-66
2023/09/13 08:38:02;;;;;;;10.20;6.13;;;;;;;21.00;66.12;101536.75;5054756;27;20089;-65
2023/09/13 08:40:31;;;;;;;8.77;5.15;;;;;;;20.98;65.81;101545.22;5054162;28;20045;-65
2023/09/13 08:42:59;;;;;;;7.55;5.07;;;;;;;20.97;65.90;101546.31;5056718;27;20049;-64
2023/09/13 08:45:29;;;;;;;7.72;4.75;;;;;;;20.96;65.92;101547.41;5052704;28;20041;-66
2023/09/13 08:48:01;;;;;;;6.30;3.97;;;;;;;20.93;65.82;101547.13;5051075;27;20146;-66
2023/09/13 08:50:30;;;;;;;5.90;3.95;;;;;;;20.94;65.89;101563.25;5056570;28;20109;-65
2023/09/13 08:53:02;;;;;;;7.40;3.38;;;;;;;20.90;65.53;101559.41;5058442;27;20053;-65
2023/09/13 08:55:31;;;;;;;5.53;2.47;;;;;;;20.93;65.43;101586.19;5053113;28;20098;-65
2023/09/13 08:58:01;;;;;;;4.55;3.13;;;;;;;20.93;65.31;101582.66;5061697;28;20049;-66
2023/09/13 09:00:31;;;;;;;4.28;2.60;;;;;;;20.91;65.00;101593.84;5055826;27;20070;-65
2023/09/13 09:03:02;;;;;;;3.60;2.08;;;;;;;20.89;65.16;101593.31;5056991;27;20136;-65
2023/09/13 09:05:32;;;;;;;4.07;2.30;;;;;;;20.91;64.85;101612.97;5063963;27;20117;-66
2023/09/13 09:08:03;;;;;;;3.35;1.90;;;;;;;20.90;64.69;101603.16;5052992;28;20056;-63
2023/09/13 09:10:31;;;;;;;2.65;1.85;;;;;;;20.90;64.52;101616.81;5054245;28;20069;-65
2023/09/13 09:13:01;;;;;;;2.50;1.65;;;;;;;20.78;64.47;101595.25;5059123;27;20068;-65
2023/09/13 09:15:31;;;;;;;4.80;1.80;;;;;;;20.89;64.29;101617.09;5059557;27;20406;-64
2023/09/13 09:18:03;;;;;;;2.25;1.40;;;;;;;20.89;64.22;101622.53;5054601;28;20041;-65
2023/09/13 09:20:31;;;;;;;4.13;1.05;;;;;;;20.89;63.92;101630.75;5059223;28;20542;-64
2023/09/13 09:23:01;;;;;;;2.63;1.52;;;;;;;20.88;63.74;101643.59;5060178;27;20048;-64
2023/09/13 09:25:32;;;;;;;1.92;1.33;;;;;;;20.87;63.44;101646.59;5059786;28;20052;-64
2023/09/13 09:28:02;;;;;;;2.67;1.30;;;;;;;20.89;63.49;101650.69;5056066;27;20049;-64
2023/09/13 09:30:32;;;;;;;1.83;1.05;;;;;;;20.89;63.44;101653.44;5059774;28;20093;-64
2023/09/13 09:33:01;;;;;;;3.50;1.10;;;;;;;20.89;63.42;101656.16;5057844;27;20045;-64
2023/09/13 09:35:29;;;;;;;2.03;1.10;;;;;;;20.91;63.23;101656.72;5061236;28;20049;-64
2023/09/13 09:37:57;;;;;;;3.10;1.48;;;;;;;20.91;63.05;101664.09;5062345;27;20049;-64
2023/09/13 09:40:27;;;;;;;2.38;0.98;;;;;;;20.90;62.69;101663.25;5054728;28;20057;-64
2023/09/13 09:42:58;;;;;;;2.05;1.02;;;;;;;20.92;62.67;101663.00;5060120;27;20049;-64
2023/09/13 09:45:26;;;;;;;1.63;0.93;;;;;;;20.94;62.72;101663.53;5058786;28;20074;-64
2023/09/13 09:47:56;;;;;;;1.67;0.85;;;;;;;20.93;62.43;101670.91;5054358;27;20438;-63
2023/09/13 09:50:24;;;;;;;2.72;1.48;;;;;;;20.93;62.61;101659.16;5061001;27;20177;-62
2023/09/13 09:52:53;;;;;;;2.63;0.90;;;;;;;20.95;62.79;101666.00;5059681;28;20052;-63
2023/09/13 09:55:23;;;;;;;3.75;1.02;;;;;;;20.94;62.49;101669.81;5061766;28;20182;-63
2023/09/13 09:57:53;;;;;;;3.80;1.33;;;;;;;20.93;62.46;101664.63;5059887;27;20064;-63
2023/09/13 10:00:22;;;;;;;2.03;0.88;;;;;;;20.92;62.21;101673.91;5060158;28;20049;-63
2023/09/13 10:02:50;;;;;;;2.00;1.08;;;;;;;20.90;62.23;101674.19;5060627;28;20070;-63
2023/09/13 10:05:19;;;;;;;1.23;0.88;;;;;;;20.88;62.16;101678.28;5062955;27;20093;-62
2023/09/13 10:07:51;;;;;;;1.73;0.93;;;;;;;20.86;62.13;101678.56;5058312;28;20084;-63
2023/09/13 10:10:29;;;;;;;1.58;0.88;;;;;;;20.83;61.95;101676.38;5060790;28;20060;-63
2023/09/13 10:12:59;;;;;;;2.80;0.90;;;;;;;20.85;62.11;101679.66;5063619;27;20113;-63
2023/09/13 10:15:27;;;;;;;1.10;0.93;;;;;;;20.84;61.96;101685.38;5076516;27;20039;-62
2023/09/13 10:17:56;;;;;;;2.03;0.95;;;;;;;20.84;62.08;101688.13;5064413;27;20135;-63
2023/09/13 10:20:24;;;;;;;0.73;0.68;;;;;;;20.84;62.03;101693.56;5061159;27;20144;-62
2023/09/13 10:22:55;;;;;;;1.00;0.65;;;;;;;20.82;61.75;101693.03;5058052;27;20129;-63
2023/09/13 10:25:26;;;;;;;3.58;0.90;;;;;;;20.75;61.51;101679.66;4718478;27;9999945;-63
2023/09/13 10:27:55;;;;;;;3.30;0.80;;;;;;;20.75;61.77;101691.41;5055830;27;20045;-63
2023/09/13 10:30:28;;;;;;;3.17;1.38;;;;;;;20.80;61.59;101702.31;5047569;28;20053;-64
2023/09/13 10:32:59;;;;;;;1.60;0.73;;;;;;;20.80;61.91;101704.25;5053193;28;20065;-63
2023/09/13 10:35:29;;;;;;;1.05;0.85;;;;;;;20.81;61.69;101708.59;5063948;27;20072;-63
2023/09/13 10:38:03;;;;;;;1.42;0.50;;;;;;;20.80;62.00;101707.78;5056405;28;20053;-63
2023/09/13 10:40:38;;;;;;;1.73;1.05;;;;;;;20.82;61.83;101715.72;5054660;28;20053;-63
2023/09/13 10:43:06;;;;;;;1.77;1.05;;;;;;;20.83;61.75;101722.00;5062233;28;20076;-63
2023/09/13 10:45:36;;;;;;;1.15;1.00;;;;;;;20.83;61.75;101713.78;5066663;27;20052;-63
2023/09/13 10:48:06;;;;;;;4.00;1.27;;;;;;;20.82;61.68;101723.91;5050207;28;20381;-64
2023/09/13 10:50:34;;;;;;;4.88;0.88;;;;;;;20.82;61.64;101725.81;5055715;28;20055;-63
2023/09/13 10:53:03;;;;;;;2.00;1.00;;;;;;;20.83;61.79;101732.91;5055278;27;20041;-63
2023/09/13 10:55:33;;;;;;;2.00;0.90;;;;;;;20.82;61.69;101742.22;5055154;27;20055;-63
2023/09/13 10:58:03;;;;;;;1.40;0.68;;;;;;;20.69;61.58;101725.25;5054385;28;20088;-62
2023/09/13 11:00:31;;;;;;;2.92;1.25;;;;;;;20.83;61.63;101746.59;5053323;28;20068;-64
2023/09/13 11:03:02;;;;;;;3.03;1.40;;;;;;;20.82;61.54;101743.03;5058797;28;20144;-63
2023/09/13 11:05:33;;;;;;;1.80;0.90;;;;;;;20.83;61.57;101749.31;5053441;27;20495;-63
2023/09/13 11:08:02;;;;;;;2.58;1.10;;;;;;;20.83;61.62;101752.03;5062861;27;20045;-64
2023/09/13 11:10:32;;;;;;;2.00;1.00;;;;;;;20.83;61.20;101752.03;5054898;27;20097;-64
2023/09/13 11:13:11;;;;;;;1.17;0.90;;;;;;;20.84;61.54;101765.44;5056525;27;20867;-64
2023/09/13 11:15:49;;;;;;;3.55;1.45;;;;;;;20.83;60.93;101765.72;5051731;27;20049;-63
2023/09/13 11:18:18;;;;;;;2.40;1.10;;;;;;;20.83;61.02;101769.25;5066758;27;20135;-63
2023/09/13 11:20:46;;;;;;;1.65;0.88;;;;;;;20.85;60.95;101771.72;5051070;28;20057;-63
2023/09/13 11:23:18;;;;;;;2.35;1.13;;;;;;;20.86;60.92;101770.63;5051074;27;20064;-64
2023/09/13 11:25:52;;;;;;;1.60;0.68;;;;;;;20.88;61.18;101788.41;5054493;27;20068;-64